Wetterdaten: Sonntag, 14.09.2014
Datum Zeit Temperatur Luftfeuchte Luftdruck Regen Wind Richtung Richtung Taupunkt Windchill Windben
14.09.2014 00:00 10,8 C 94 % 1021,2 hPa 0,0 l/m 0,6 km/h (0 Bft) S 180 9,9 C 10,5 C 3,7 km/h (1 Bft)
14.09.2014 00:10 10,8 C 94 % 1021,1 hPa 0,0 l/m 1,4 km/h (1 Bft) S-SO 157 9,9 C 10,5 C 2,1 km/h (1 Bft)
14.09.2014 00:20 11,0 C 94 % 1021,1 hPa 0,0 l/m 2,4 km/h (1 Bft) S 180 10,1 C 10,6 C 4,7 km/h (1 Bft)
14.09.2014 00:30 11,1 C 94 % 1020,8 hPa 0,0 l/m 2,6 km/h (1 Bft) SW 225 10,2 C 10,7 C 3,7 km/h (1 Bft)
14.09.2014 00:40 11,1 C 94 % 1020,8 hPa 0,0 l/m 1,6 km/h (1 Bft) W-SW 247 10,2 C 10,7 C 2,3 km/h (1 Bft)
14.09.2014 00:50 11,2 C 94 % 1020,8 hPa 0,0 l/m 1,4 km/h (1 Bft) S 180 10,3 C 10,8 C 5,6 km/h (1 Bft)
14.09.2014 01:00 11,3 C 94 % 1020,8 hPa 0,0 l/m 1,6 km/h (1 Bft) SW 225 10,4 C 11,0 C 0,0 km/h (0 Bft)
14.09.2014 01:10 11,3 C 94 % 1020,8 hPa 0,0 l/m 0,8 km/h (0 Bft) S-SW 202 10,4 C 11,0 C 0,0 km/h (0 Bft)
14.09.2014 01:20 11,3 C 94 % 1020,8 hPa 0,0 l/m 0,5 km/h (0 Bft) N-NW 337 10,4 C 10,9 C 1,6 km/h (1 Bft)
14.09.2014 01:30 11,2 C 95 % 1021,0 hPa 0,0 l/m 0,2 km/h (0 Bft) NW 315 10,4 C 10,9 C 0,0 km/h (0 Bft)
14.09.2014 01:40 11,0 C 95 % 1021,0 hPa 0,0 l/m 0,2 km/h (0 Bft) S 180 10,2 C 10,8 C 0,0 km/h (0 Bft)
14.09.2014 01:50 11,2 C 95 % 1021,1 hPa 0,0 l/m 1,1 km/h (1 Bft) S-SO 157 10,4 C 10,8 C 0,0 km/h (0 Bft)
14.09.2014 02:00 11,2 C 95 % 1021,1 hPa 0,0 l/m 0,3 km/h (0 Bft) SW 225 10,4 C 10,9 C 0,0 km/h (0 Bft)
14.09.2014 02:10 11,2 C 95 % 1021,0 hPa 0,0 l/m 0,0 km/h (0 Bft) S-SO 157 10,4 C 10,9 C 0,0 km/h (0 Bft)
14.09.2014 02:20 11,2 C 95 % 1021,0 hPa 0,0 l/m 0,0 km/h (0 Bft) SW 225 10,4 C 10,9 C 0,0 km/h (0 Bft)
14.09.2014 02:30 11,2 C 95 % 1021,1 hPa 0,0 l/m 0,5 km/h (0 Bft) O-SO 112 10,4 C 10,9 C 0,0 km/h (0 Bft)
14.09.2014 02:40 11,2 C 95 % 1021,1 hPa 0,0 l/m 0,0 km/h (0 Bft) W-SW 247 10,4 C 10,9 C 0,0 km/h (0 Bft)
14.09.2014 02:50 11,3 C 95 % 1020,9 hPa 0,0 l/m 1,9 km/h (1 Bft) S 180 10,5 C 11,0 C 2,6 km/h (1 Bft)
14.09.2014 03:00 11,2 C 95 % 1020,9 hPa 0,0 l/m 0,6 km/h (0 Bft) O-SO 112 10,4 C 10,9 C 0,0 km/h (0 Bft)
14.09.2014 03:10 11,3 C 95 % 1020,9 hPa 0,0 l/m 0,6 km/h (0 Bft) S-SO 157 10,5 C 11,0 C 1,8 km/h (1 Bft)
14.09.2014 03:20 11,3 C 95 % 1020,9 hPa 0,0 l/m 1,8 km/h (1 Bft) SW 225 10,5 C 11,0 C 6,0 km/h (2 Bft)
14.09.2014 03:30 11,1 C 95 % 1020,6 hPa 0,0 l/m 0,0 km/h (0 Bft) S 180 10,3 C 10,9 C 0,0 km/h (0 Bft)
14.09.2014 03:38 11,1 C 95 % 1020,6 hPa 0,0 l/m 1,3 km/h (1 Bft) W-SW 247 10,3 C 10,8 C 0,0 km/h (0 Bft)
14.09.2014 03:40 11,1 C 95 % 1020,6 hPa 0,0 l/m 1,3 km/h (1 Bft) W-SW 247 10,3 C 10,8 C 0,0 km/h (0 Bft)
14.09.2014 03:50 11,0 C 95 % 1020,6 hPa 0,0 l/m 2,3 km/h (1 Bft) W 270 10,2 C 10,7 C 7,4 km/h (2 Bft)
14.09.2014 04:00 10,6 C 95 % 1020,6 hPa 0,0 l/m 0,8 km/h (0 Bft) O-SO 112 9,8 C 10,5 C 0,0 km/h (0 Bft)
14.09.2014 04:10 10,5 C 95 % 1020,4 hPa 0,0 l/m 0,0 km/h (0 Bft) S-SO 157 9,7 C 10,3 C 0,0 km/h (0 Bft)
14.09.2014 04:20 10,4 C 95 % 1020,4 hPa 0,0 l/m 0,0 km/h (0 Bft) S 180 9,6 C 10,2 C 0,0 km/h (0 Bft)
14.09.2014 04:30 10,5 C 95 % 1020,4 hPa 0,0 l/m 0,2 km/h (0 Bft) S-SO 157 9,7 C 10,1 C 0,0 km/h (0 Bft)
14.09.2014 04:40 10,1 C 95 % 1020,4 hPa 0,0 l/m 0,3 km/h (0 Bft) W-SW 247 9,3 C 9,9 C 0,0 km/h (0 Bft)
14.09.2014 04:50 9,6 C 95 % 1020,1 hPa 0,0 l/m 0,0 km/h (0 Bft) SO 135 8,8 C 9,4 C 0,0 km/h (0 Bft)
14.09.2014 05:00 9,7 C 95 % 1020,1 hPa 0,0 l/m 0,0 km/h (0 Bft) S-SO 157 8,9 C 9,4 C 0,0 km/h (0 Bft)
14.09.2014 05:10 10,2 C 95 % 1020,4 hPa 0,0 l/m 0,0 km/h (0 Bft) SW 225 9,4 C 10,0 C 0,0 km/h (0 Bft)
14.09.2014 05:20 10,4 C 95 % 1020,4 hPa 0,0 l/m 0,5 km/h (0 Bft) N-NO 22 9,6 C 10,2 C 1,9 km/h (1 Bft)
14.09.2014 05:30 10,2 C 95 % 1020,2 hPa 0,0 l/m 0,3 km/h (0 Bft) SO 135 9,4 C 10,1 C 0,0 km/h (0 Bft)
14.09.2014 05:40 10,3 C 95 % 1020,2 hPa 0,0 l/m 0,2 km/h (0 Bft) S 180 9,5 C 10,1 C 2,7 km/h (1 Bft)
14.09.2014 05:50 10,7 C 95 % 1020,1 hPa 0,0 l/m 1,6 km/h (1 Bft) S 180 9,9 C 10,2 C 6,6 km/h (2 Bft)
14.09.2014 06:00 10,6 C 95 % 1020,1 hPa 0,0 l/m 2,6 km/h (1 Bft) NW 315 9,8 C 10,4 C 0,0 km/h (0 Bft)
14.09.2014 06:10 10,4 C 95 % 1019,8 hPa 0,0 l/m 0,0 km/h (0 Bft) O-NO 67 9,6 C 10,1 C 0,0 km/h (0 Bft)
14.09.2014 06:20 10,4 C 95 % 1019,8 hPa 0,0 l/m 0,6 km/h (0 Bft) S-SO 157 9,6 C 10,0 C 1,9 km/h (1 Bft)
14.09.2014 06:30 10,6 C 95 % 1019,8 hPa 0,0 l/m 0,3 km/h (0 Bft) S-SO 157 9,8 C 10,2 C 0,0 km/h (0 Bft)
14.09.2014 06:39 10,5 C 95 % 1019,8 hPa 0,0 l/m 0,3 km/h (0 Bft) S 180 9,7 C 10,3 C 1,8 km/h (1 Bft)
14.09.2014 06:40 10,5 C 95 % 1019,8 hPa 0,0 l/m 0,3 km/h (0 Bft) S 180 9,7 C 10,3 C 1,8 km/h (1 Bft)
14.09.2014 06:50 10,5 C 95 % 1019,8 hPa 0,0 l/m 0,8 km/h (0 Bft) S-SO 157 9,7 C 10,2 C 0,0 km/h (0 Bft)
14.09.2014 07:00 10,3 C 95 % 1019,8 hPa 0,0 l/m 0,2 km/h (0 Bft) SO 135 9,5 C 10,0 C 0,0 km/h (0 Bft)
14.09.2014 07:10 10,1 C 95 % 1019,9 hPa 0,0 l/m 0,0 km/h (0 Bft) SO 135 9,3 C 9,9 C 0,0 km/h (0 Bft)
14.09.2014 07:20 10,3 C 95 % 1019,9 hPa 0,0 l/m 0,0 km/h (0 Bft) SO 135 9,5 C 10,0 C 0,0 km/h (0 Bft)
14.09.2014 07:30 10,5 C 95 % 1020,0 hPa 0,0 l/m 1,1 km/h (1 Bft) S 180 9,7 C 10,2 C 0,0 km/h (0 Bft)
14.09.2014 07:40 10,5 C 96 % 1020,0 hPa 0,0 l/m 0,0 km/h (0 Bft) S 180 9,9 C 10,2 C 0,0 km/h (0 Bft)
14.09.2014 07:50 10,6 C 96 % 1019,8 hPa 0,0 l/m 0,0 km/h (0 Bft) W-NW 292 10,0 C 10,3 C 0,0 km/h (0 Bft)
14.09.2014 08:00 10,6 C 95 % 1019,8 hPa 0,0 l/m 0,2 km/h (0 Bft) NW 315 9,8 C 10,3 C 0,0 km/h (0 Bft)
14.09.2014 08:10 10,6 C 96 % 1019,9 hPa 0,0 l/m 0,2 km/h (0 Bft) W-SW 247 10,0 C 10,3 C 0,0 km/h (0 Bft)
14.09.2014 08:20 11,0 C 95 % 1019,9 hPa 0,0 l/m 0,2 km/h (0 Bft) N-NO 22 10,2 C 10,7 C 1,8 km/h (1 Bft)
14.09.2014 08:30 11,2 C 95 % 1019,9 hPa 0,0 l/m 0,8 km/h (0 Bft) SO 135 10,4 C 10,9 C 0,0 km/h (0 Bft)
14.09.2014 08:40 11,2 C 95 % 1019,9 hPa 0,0 l/m 0,0 km/h (0 Bft) N-NO 22 10,4 C 10,9 C 0,0 km/h (0 Bft)
14.09.2014 08:50 11,3 C 95 % 1019,8 hPa 0,0 l/m 0,0 km/h (0 Bft) N-NO 22 10,5 C 11,1 C 1,6 km/h (1 Bft)
14.09.2014 09:00 11,4 C 95 % 1019,8 hPa 0,0 l/m 0,0 km/h (0 Bft) S-SW 202 10,6 C 11,2 C 0,0 km/h (0 Bft)
14.09.2014 09:10 11,8 C 95 % 1020,0 hPa 0,0 l/m 0,3 km/h (0 Bft) W-NW 292 11,0 C 11,5 C 0,0 km/h (0 Bft)
14.09.2014 09:20 11,7 C 95 % 1020,0 hPa 0,0 l/m 1,6 km/h (1 Bft) W-NW 292 10,9 C 11,6 C 2,6 km/h (1 Bft)
14.09.2014 09:30 12,5 C 95 % 1020,1 hPa 0,0 l/m 0,5 km/h (0 Bft) W-SW 247 11,7 C 12,4 C 3,2 km/h (1 Bft)
14.09.2014 09:40 12,9 C 95 % 1020,1 hPa 0,0 l/m 1,6 km/h (1 Bft) W-SW 247 12,1 C 13,2 C 0,0 km/h (0 Bft)
14.09.2014 09:50 15,7 C 94 % 1020,1 hPa 0,0 l/m 0,3 km/h (0 Bft) NW 315 14,7 C 16,1 C 3,4 km/h (1 Bft)
14.09.2014 10:00 16,2 C 91 % 1020,1 hPa 0,0 l/m 1,8 km/h (1 Bft) N-NO 22 14,7 C 17,6 C 3,2 km/h (1 Bft)
14.09.2014 10:10 15,6 C 90 % 1020,1 hPa 0,0 l/m 1,8 km/h (1 Bft) S 180 14,0 C 17,4 C 0,0 km/h (0 Bft)
14.09.2014 10:20 15,8 C 87 % 1020,1 hPa 0,0 l/m 0,5 km/h (0 Bft) NW 315 13,6 C 17,8 C 3,1 km/h (1 Bft)
14.09.2014 10:30 18,5 C 77 % 1020,5 hPa 0,0 l/m 1,9 km/h (1 Bft) N-NW 337 14,4 C 20,1 C 3,2 km/h (1 Bft)
14.09.2014 10:38 18,4 C 63 % 1020,5 hPa 0,0 l/m 1,4 km/h (1 Bft) S-SO 157 11,2 C 22,9 C 0,0 km/h (0 Bft)
14.09.2014 10:40 18,4 C 63 % 1020,5 hPa 0,0 l/m 1,4 km/h (1 Bft) S-SO 157 11,2 C 22,9 C 0,0 km/h (0 Bft)
14.09.2014 10:50 20,8 C 72 % 1020,6 hPa 0,0 l/m 1,4 km/h (1 Bft) W-NW 292 15,6 C 24,9 C 3,2 km/h (1 Bft)
14.09.2014 11:00 17,9 C 76 % 1020,6 hPa 0,0 l/m 2,6 km/h (1 Bft) NW 315 13,6 C 23,0 C 2,4 km/h (1 Bft)
14.09.2014 11:10 18,0 C 79 % 1021,1 hPa 0,0 l/m 1,4 km/h (1 Bft) N-NO 22 14,3 C 20,2 C 2,7 km/h (1 Bft)
14.09.2014 11:20 17,5 C 72 % 1021,1 hPa 0,0 l/m 1,6 km/h (1 Bft) O 90 12,4 C 19,7 C 3,5 km/h (1 Bft)
14.09.2014 11:30 17,7 C 78 % 1020,9 hPa 0,0 l/m 1,6 km/h (1 Bft) NO 45 13,8 C 19,3 C 0,0 km/h (0 Bft)
14.09.2014 11:40 18,0 C 70 % 1020,9 hPa 0,0 l/m 0,6 km/h (0 Bft) NO 45 12,4 C 19,7 C 0,0 km/h (0 Bft)
14.09.2014 11:50 18,9 C 61 % 1020,8 hPa 0,0 l/m 1,1 km/h (1 Bft) NO 45 11,2 C 23,1 C 0,0 km/h (0 Bft)
14.09.2014 12:00 21,3 C 66 % 1020,8 hPa 0,0 l/m 2,1 km/h (1 Bft) S-SO 157 14,7 C 23,3 C 8,0 km/h (2 Bft)
14.09.2014 12:10 20,7 C 65 % 1020,8 hPa 0,0 l/m 0,6 km/h (0 Bft) NW 315 13,9 C 25,0 C 0,0 km/h (0 Bft)
14.09.2014 12:20 22,0 C 52 % 1020,8 hPa 0,0 l/m 1,6 km/h (1 Bft) O-NO 67 11,7 C 25,1 C 3,1 km/h (1 Bft)
14.09.2014 12:30 19,1 C 59 % 1020,8 hPa 0,0 l/m 1,9 km/h (1 Bft) O-NO 67 10,9 C 22,6 C 2,4 km/h (1 Bft)
14.09.2014 12:40 20,3 C 57 % 1020,8 hPa 0,0 l/m 4,0 km/h (1 Bft) N-NW 337 11,5 C 22,9 C 8,5 km/h (2 Bft)
14.09.2014 12:50 21,4 C 52 % 1020,8 hPa 0,0 l/m 6,1 km/h (2 Bft) W-NW 292 11,1 C 23,5 C 11,9 km/h (2 Bft)
14.09.2014 13:00 18,8 C 60 % 1020,8 hPa 0,0 l/m 5,0 km/h (1 Bft) N-NW 337 10,9 C 21,5 C 6,3 km/h (2 Bft)
14.09.2014 13:10 17,9 C 63 % 1020,9 hPa 0,0 l/m 3,7 km/h (1 Bft) NO 45 10,8 C 19,7 C 5,1 km/h (1 Bft)
14.09.2014 13:20 18,2 C 64 % 1020,9 hPa 0,0 l/m 3,2 km/h (1 Bft) SO 135 11,3 C 19,4 C 6,4 km/h (2 Bft)
14.09.2014 13:29 17,7 C 65 % 1021,1 hPa 0,0 l/m 4,0 km/h (1 Bft) O-NO 67 11,0 C 19,2 C 3,4 km/h (1 Bft)
14.09.2014 13:30 17,7 C 65 % 1021,1 hPa 0,0 l/m 4,0 km/h (1 Bft) O-NO 67 11,0 C 19,2 C 3,4 km/h (1 Bft)
14.09.2014 13:40 16,8 C 69 % 1021,1 hPa 0,0 l/m 4,2 km/h (1 Bft) O-NO 67 11,1 C 18,1 C 7,1 km/h (2 Bft)
14.09.2014 13:50 17,1 C 70 % 1020,7 hPa 0,0 l/m 3,1 km/h (1 Bft) O-NO 67 11,6 C 17,8 C 3,4 km/h (1 Bft)
14.09.2014 14:00 17,1 C 70 % 1020,7 hPa 0,0 l/m 2,6 km/h (1 Bft) N-NO 22 11,6 C 17,9 C 4,7 km/h (1 Bft)
14.09.2014 14:10 18,2 C 67 % 1020,5 hPa 0,0 l/m 0,0 km/h (0 Bft) N-NO 22 12,0 C 17,9 C 0,0 km/h (0 Bft)
14.09.2014 14:20 18,2 C 64 % 1020,5 hPa 0,0 l/m 0,0 km/h (0 Bft) N-NO 22 11,3 C 17,9 C 0,0 km/h (0 Bft)
14.09.2014 14:30 17,8 C 66 % 1020,6 hPa 0,0 l/m 0,0 km/h (0 Bft) N-NO 22 11,4 C 17,9 C 0,0 km/h (0 Bft)
14.09.2014 14:40 18,8 C 65 % 1020,6 hPa 0,0 l/m 0,0 km/h (0 Bft) N-NO 22 12,1 C 17,9 C 0,0 km/h (0 Bft)
14.09.2014 14:50 21,2 C 58 % 1020,8 hPa 0,0 l/m 0,0 km/h (0 Bft) N-NO 22 12,6 C 17,9 C 0,0 km/h (0 Bft)
14.09.2014 15:00 18,5 C 62 % 1020,8 hPa 0,0 l/m 0,0 km/h (0 Bft) N-NO 22 11,1 C 17,9 C 0,0 km/h (0 Bft)
14.09.2014 15:10 17,7 C 66 % 1020,8 hPa 0,0 l/m 0,0 km/h (0 Bft) N-NO 22 11,3 C 17,9 C 0,0 km/h (0 Bft)
14.09.2014 15:20 17,5 C 67 % 1020,8 hPa 0,0 l/m 0,0 km/h (0 Bft) N-NO 22 11,3 C 17,9 C 0,0 km/h (0 Bft)
14.09.2014 15:30 17,2 C 68 % 1020,6 hPa 0,0 l/m 0,0 km/h (0 Bft) N-NO 22 11,2 C 17,9 C 0,0 km/h (0 Bft)
14.09.2014 15:40 17,0 C 70 % 1020,6 hPa 0,0 l/m 0,0 km/h (0 Bft) N-NO 22 11,5 C 17,9 C 0,0 km/h (0 Bft)
14.09.2014 15:50 16,7 C 72 % 1020,7 hPa 0,0 l/m 0,0 km/h (0 Bft) N-NO 22 11,6 C 17,9 C 0,0 km/h (0 Bft)
14.09.2014 16:00 16,4 C 72 % 1020,7 hPa 0,0 l/m 0,0 km/h (0 Bft) N-NO 22 11,3 C 17,9 C 0,0 km/h (0 Bft)
14.09.2014 16:10 16,7 C 73 % 1020,6 hPa 0,0 l/m 0,0 km/h (0 Bft) N-NO 22 11,8 C 17,9 C 0,0 km/h (0 Bft)
14.09.2014 16:20 16,9 C 72 % 1020,6 hPa 0,0 l/m 0,0 km/h (0 Bft) N-NO 22 11,8 C 17,9 C 0,0 km/h (0 Bft)
14.09.2014 16:28 17,0 C 71 % 1020,3 hPa 0,0 l/m 0,0 km/h (0 Bft) N-NO 22 11,7 C 17,9 C 0,0 km/h (0 Bft)
14.09.2014 16:30 17,0 C 71 % 1020,3 hPa 0,0 l/m 0,0 km/h (0 Bft) N-NO 22 11,7 C 17,9 C 0,0 km/h (0 Bft)
14.09.2014 16:40 17,5 C 70 % 1020,3 hPa 0,0 l/m 0,0 km/h (0 Bft) N-NO 22 12,0 C 17,9 C 0,0 km/h (0 Bft)
14.09.2014 16:50 18,5 C 66 % 1020,3 hPa 0,0 l/m 0,0 km/h (0 Bft) N-NO 22 12,0 C 17,9 C 0,0 km/h (0 Bft)
14.09.2014 17:00 17,8 C 66 % 1020,3 hPa 0,0 l/m 0,0 km/h (0 Bft) N-NO 22 11,4 C 17,9 C 0,0 km/h (0 Bft)
14.09.2014 17:10 17,0 C 69 % 1020,4 hPa 0,0 l/m 0,0 km/h (0 Bft) N-NO 22 11,3 C 17,9 C 0,0 km/h (0 Bft)
14.09.2014 17:20 17,3 C 69 % 1020,4 hPa 0,0 l/m 0,0 km/h (0 Bft) N-NO 22 11,6 C 17,9 C 0,0 km/h (0 Bft)
14.09.2014 17:30 16,9 C 70 % 1020,1 hPa 0,0 l/m 0,0 km/h (0 Bft) N-NO 22 11,4 C 17,9 C 0,0 km/h (0 Bft)
14.09.2014 17:40 16,6 C 71 % 1020,1 hPa 0,0 l/m 0,0 km/h (0 Bft) N-NO 22 11,3 C 17,9 C 0,0 km/h (0 Bft)
14.09.2014 17:50 16,4 C 73 % 1019,9 hPa 0,0 l/m 0,0 km/h (0 Bft) N-NO 22 11,5 C 17,9 C 0,0 km/h (0 Bft)
14.09.2014 18:00 16,2 C 75 % 1019,9 hPa 0,0 l/m 0,0 km/h (0 Bft) N-NO 22 11,8 C 17,9 C 0,0 km/h (0 Bft)
14.09.2014 18:10 16,7 C 75 % 1019,7 hPa 0,0 l/m 0,0 km/h (0 Bft) N-NO 22 12,2 C 17,9 C 0,0 km/h (0 Bft)
14.09.2014 18:20 16,7 C 74 % 1019,7 hPa 0,0 l/m 0,0 km/h (0 Bft) N-NO 22 12,0 C 17,9 C 0,0 km/h (0 Bft)
14.09.2014 18:30 16,3 C 76 % 1019,8 hPa 0,0 l/m 0,0 km/h (0 Bft) N-NO 22 12,1 C 17,9 C 0,0 km/h (0 Bft)
14.09.2014 18:40 15,6 C 77 % 1019,8 hPa 0,0 l/m 0,0 km/h (0 Bft) N-NO 22 11,6 C 17,9 C 0,0 km/h (0 Bft)
14.09.2014 18:50 15,3 C 78 % 1019,7 hPa 0,0 l/m 0,0 km/h (0 Bft) N-NO 22 11,5 C 17,9 C 0,0 km/h (0 Bft)
14.09.2014 19:00 15,3 C 79 % 1019,7 hPa 0,0 l/m 0,0 km/h (0 Bft) N-NO 22 11,7 C 17,9 C 0,0 km/h (0 Bft)
14.09.2014 19:10 15,2 C 78 % 1019,6 hPa 0,0 l/m 0,0 km/h (0 Bft) N-NO 22 11,4 C 17,9 C 0,0 km/h (0 Bft)
14.09.2014 19:20 14,7 C 78 % 1019,6 hPa 0,0 l/m 0,0 km/h (0 Bft) N-NO 22 10,9 C 17,9 C 0,0 km/h (0 Bft)
14.09.2014 19:30 14,2 C 79 % 1019,7 hPa 0,0 l/m 0,0 km/h (0 Bft) N-NO 22 10,6 C 17,9 C 0,0 km/h (0 Bft)
14.09.2014 19:40 13,7 C 80 % 1019,7 hPa 0,0 l/m 0,0 km/h (0 Bft) N-NO 22 10,3 C 17,9 C 0,0 km/h (0 Bft)
14.09.2014 19:50 13,3 C 81 % 1019,8 hPa 0,0 l/m 0,0 km/h (0 Bft) N-NO 22 10,1 C 17,9 C 0,0 km/h (0 Bft)
14.09.2014 20:00 12,9 C 83 % 1019,8 hPa 0,0 l/m 0,0 km/h (0 Bft) N-NO 22 10,1 C 17,9 C 0,0 km/h (0 Bft)
14.09.2014 20:10 12,5 C 84 % 1019,7 hPa 0,0 l/m 0,0 km/h (0 Bft) N-NO 22 9,9 C 17,9 C 0,0 km/h (0 Bft)
14.09.2014 20:20 12,5 C 85 % 1019,7 hPa 0,0 l/m 0,0 km/h (0 Bft) N-NO 22 10,0 C 17,9 C 0,0 km/h (0 Bft)
14.09.2014 20:28 12,3 C 86 % 1019,8 hPa 0,0 l/m 0,0 km/h (0 Bft) N-NO 22 10,0 C 17,9 C 0,0 km/h (0 Bft)
14.09.2014 20:30 12,3 C 86 % 1019,8 hPa 0,0 l/m 0,0 km/h (0 Bft) N-NO 22 10,0 C 17,9 C 0,0 km/h (0 Bft)
14.09.2014 20:40 12,1 C 86 % 1019,8 hPa 0,0 l/m 0,0 km/h (0 Bft) N-NO 22 9,8 C 17,9 C 0,0 km/h (0 Bft)
14.09.2014 20:50 12,1 C 87 % 1019,8 hPa 0,0 l/m 0,0 km/h (0 Bft) N-NO 22 10,0 C 17,9 C 0,0 km/h (0 Bft)
14.09.2014 21:00 11,9 C 87 % 1019,8 hPa 0,0 l/m 0,0 km/h (0 Bft) N-NO 22 9,8 C 17,9 C 0,0 km/h (0 Bft)
14.09.2014 21:10 12,1 C 87 % 1019,9 hPa 0,0 l/m 0,0 km/h (0 Bft) N-NO 22 10,0 C 17,9 C 0,0 km/h (0 Bft)
14.09.2014 21:20 12,0 C 88 % 1019,9 hPa 0,0 l/m 0,0 km/h (0 Bft) N-NO 22 10,1 C 17,9 C 0,0 km/h (0 Bft)
14.09.2014 21:30 12,1 C 88 % 1019,8 hPa 0,0 l/m 0,0 km/h (0 Bft) N-NO 22 10,2 C 17,9 C 0,0 km/h (0 Bft)
14.09.2014 21:40 12,0 C 88 % 1019,8 hPa 0,0 l/m 0,0 km/h (0 Bft) N-NO 22 10,1 C 17,9 C 0,0 km/h (0 Bft)
14.09.2014 21:50 12,1 C 88 % 1019,8 hPa 0,0 l/m 0,0 km/h (0 Bft) N-NO 22 10,2 C 17,9 C 0,0 km/h (0 Bft)
14.09.2014 22:00 12,0 C 89 % 1019,8 hPa 0,0 l/m 0,0 km/h (0 Bft) N-NO 22 10,2 C 17,9 C 0,0 km/h (0 Bft)
14.09.2014 22:10 12,1 C 89 % 1019,6 hPa 0,0 l/m 0,0 km/h (0 Bft) N-NO 22 10,3 C 17,9 C 0,0 km/h (0 Bft)
14.09.2014 22:20 12,1 C 89 % 1019,6 hPa 0,0 l/m 0,0 km/h (0 Bft) N-NO 22 10,3 C 17,9 C 0,0 km/h (0 Bft)
14.09.2014 22:30 11,9 C 89 % 1019,8 hPa 0,0 l/m 0,0 km/h (0 Bft) N-NO 22 10,1 C 17,9 C 0,0 km/h (0 Bft)
14.09.2014 22:40 12,1 C 89 % 1019,8 hPa 0,0 l/m 0,0 km/h (0 Bft) N-NO 22 10,3 C 17,9 C 0,0 km/h (0 Bft)
14.09.2014 22:50 12,0 C 89 % 1019,4 hPa 0,0 l/m 0,0 km/h (0 Bft) N-NO 22 10,2 C 17,9 C 0,0 km/h (0 Bft)
14.09.2014 23:00 11,9 C 90 % 1019,4 hPa 0,0 l/m 0,0 km/h (0 Bft) N-NO 22 10,3 C 17,9 C 0,0 km/h (0 Bft)
14.09.2014 23:10 12,1 C 90 % 1019,6 hPa 0,0 l/m 0,0 km/h (0 Bft) N-NO 22 10,5 C 17,9 C 0,0 km/h (0 Bft)
14.09.2014 23:20 12,0 C 90 % 1019,6 hPa 0,0 l/m 0,0 km/h (0 Bft) N-NO 22 10,4 C 17,9 C 0,0 km/h (0 Bft)
14.09.2014 23:29 11,9 C 90 % 1019,5 hPa 0,0 l/m 0,0 km/h (0 Bft) N-NO 22 10,3 C 17,9 C 0,0 km/h (0 Bft)
14.09.2014 23:30 11,9 C 90 % 1019,5 hPa 0,0 l/m 0,0 km/h (0 Bft) N-NO 22 10,3 C 17,9 C 0,0 km/h (0 Bft)
14.09.2014 23:40 11,4 C 90 % 1019,5 hPa 0,0 l/m 0,0 km/h (0 Bft) N-NO 22 9,8 C 17,9 C 0,0 km/h (0 Bft)
14.09.2014 23:50 11,0 C 90 % 1019,5 hPa 0,0 l/m 0,0 km/h (0 Bft) N-NO 22 9,4 C 17,9 C 0,0 km/h (0 Bft)
_ Min-Zeit 04:50 12:50 23:00 - 23:50 - - 04:50 05:00 23:50
Minimum _ 9,6 C 52 % 1019,4 hPa - 0,0 km/h (0 Bft) - - 8,8 C 9,4 C 0,0 km/h (0 Bft)
_ Max-Zeit 12:20 08:10 00:00 23:50 12:50 - - 10:50 12:20 12:50
Maximum _ 22,0 C 96 % 1021,2 hPa 0,0 l/m 6,1 km/h
W-NW (2 Bft)
- - 15,6 C 25,1 C 11,9 km/h
W-NW (2 Bft)
Durchschnitt _ 13,9 C 84 % 1020,3 hPa #0,0 l/m 0,7 km/h (0 Bft) O-NO - 10,9 C 15,4 C 1,1 km/h (1 Bft)